createdAt,value
2018-11-22T00:02:27.362Z,3.70
2018-11-22T00:04:55.818Z,3.70
2018-11-22T00:07:24.215Z,3.80
2018-11-22T00:09:52.656Z,3.70
2018-11-22T00:12:21.081Z,3.60
2018-11-22T00:14:49.510Z,3.70
2018-11-22T00:17:17.903Z,3.70
2018-11-22T00:19:46.340Z,3.70
2018-11-22T00:22:14.756Z,3.60
2018-11-22T00:24:43.188Z,3.60
2018-11-22T00:27:11.619Z,3.60
2018-11-22T00:29:40.044Z,3.50
2018-11-22T00:32:08.482Z,3.50
2018-11-22T00:34:36.943Z,3.60
2018-11-22T00:37:05.502Z,3.50
2018-11-22T00:39:34.005Z,3.40
2018-11-22T00:42:02.433Z,3.40
2018-11-22T00:44:30.897Z,3.30
2018-11-22T00:46:59.310Z,3.20
2018-11-22T00:49:27.729Z,3.30
2018-11-22T00:51:56.184Z,3.20
2018-11-22T00:54:24.601Z,3.20
2018-11-22T00:56:53.022Z,3.20
2018-11-22T00:59:21.446Z,3.20
2018-11-22T01:01:49.849Z,3.20
2018-11-22T01:04:18.290Z,3.20
2018-11-22T01:06:46.847Z,3.30
2018-11-22T01:09:15.300Z,3.30
2018-11-22T01:11:43.685Z,3.30
2018-11-22T01:14:12.105Z,3.20
2018-11-22T01:16:40.519Z,3.20
2018-11-22T01:19:08.979Z,3.20
2018-11-22T01:21:37.411Z,3.20
2018-11-22T01:24:05.842Z,3.10
2018-11-22T01:26:34.254Z,3.10
2018-11-22T01:29:02.655Z,3.20
2018-11-22T01:31:31.132Z,3.20
2018-11-22T01:33:59.524Z,3.10
2018-11-22T01:36:27.940Z,3.00
2018-11-22T01:38:56.395Z,3.10
2018-11-22T01:41:24.821Z,3.10
2018-11-22T01:43:53.221Z,3.00
2018-11-22T01:46:21.679Z,3.00
2018-11-22T01:48:50.060Z,2.90
2018-11-22T01:51:18.484Z,2.90
2018-11-22T01:53:46.921Z,2.80
2018-11-22T01:56:15.328Z,2.90
2018-11-22T01:58:43.750Z,2.90
2018-11-22T02:01:12.175Z,2.90
2018-11-22T02:03:40.600Z,2.80
2018-11-22T02:06:08.980Z,2.80
2018-11-22T02:08:37.441Z,2.80
2018-11-22T02:11:06.195Z,2.90
2018-11-22T02:13:34.605Z,2.90
2018-11-22T02:16:03.030Z,2.90
2018-11-22T02:18:31.441Z,2.90
2018-11-22T02:20:59.869Z,2.90
2018-11-22T02:23:28.266Z,3.00
2018-11-22T02:25:56.686Z,3.10
2018-11-22T02:28:25.085Z,3.10
2018-11-22T02:30:53.519Z,3.10
2018-11-22T02:33:21.951Z,3.20
2018-11-22T02:35:50.391Z,3.20
2018-11-22T02:38:18.789Z,3.20
2018-11-22T02:40:47.232Z,3.20
2018-11-22T02:43:15.645Z,3.20
2018-11-22T02:45:44.071Z,3.30
2018-11-22T02:48:12.495Z,3.30
2018-11-22T02:50:40.933Z,3.40
2018-11-22T02:53:09.348Z,3.40
2018-11-22T02:55:37.769Z,3.20
2018-11-22T02:58:06.194Z,3.20
2018-11-22T03:00:36.259Z,3.20
2018-11-22T03:03:04.671Z,3.20
2018-11-22T03:05:33.099Z,3.30
2018-11-22T03:08:01.539Z,3.30
2018-11-22T03:10:29.970Z,3.30
2018-11-22T03:12:58.563Z,3.30
2018-11-22T03:15:27.044Z,3.40
2018-11-22T03:17:55.648Z,3.40
2018-11-22T03:20:24.083Z,3.20
2018-11-22T03:22:52.463Z,3.10
2018-11-22T03:25:21.372Z,3.10
2018-11-22T03:27:50.453Z,3.20
2018-11-22T03:30:20.067Z,3.20
2018-11-22T03:32:48.514Z,3.20
2018-11-22T03:35:18.340Z,3.10
2018-11-22T03:37:46.771Z,3.10
2018-11-22T03:40:16.545Z,3.20
2018-11-22T03:42:45.098Z,3.20
2018-11-22T03:45:14.298Z,3.20
2018-11-22T03:47:43.092Z,3.30
2018-11-22T03:50:13.245Z,3.30
2018-11-22T03:52:42.210Z,3.30
2018-11-22T03:55:12.259Z,3.30
2018-11-22T03:57:41.143Z,3.30
2018-11-22T04:00:14.745Z,3.40
2018-11-22T04:02:43.523Z,3.30
2018-11-22T04:05:13.803Z,3.30
2018-11-22T04:07:42.248Z,3.40
2018-11-22T04:10:13.486Z,3.30
2018-11-22T04:12:42.155Z,3.30
2018-11-22T04:15:11.319Z,3.30
2018-11-22T04:17:39.748Z,3.40
2018-11-22T04:20:11.079Z,3.50
2018-11-22T04:22:39.606Z,3.50
2018-11-22T04:25:09.049Z,3.40
2018-11-22T04:27:37.500Z,3.40
2018-11-22T04:30:11.856Z,3.40
2018-11-22T04:32:40.479Z,3.30
2018-11-22T04:35:09.834Z,3.20
2018-11-22T04:37:38.252Z,3.20
2018-11-22T04:40:12.449Z,3.30
2018-11-22T04:42:40.842Z,3.40
2018-11-22T04:45:09.947Z,3.30
2018-11-22T04:47:38.378Z,3.40
2018-11-22T04:50:08.552Z,3.40
2018-11-22T04:52:36.955Z,3.40
2018-11-22T04:55:06.030Z,3.40
2018-11-22T04:57:34.430Z,3.30
2018-11-22T05:00:03.164Z,3.20
2018-11-22T05:02:31.548Z,3.30
2018-11-22T05:04:59.955Z,3.30
2018-11-22T05:07:28.370Z,3.40
2018-11-22T05:09:56.810Z,3.30
2018-11-22T05:12:25.202Z,3.20
2018-11-22T05:14:53.605Z,3.20
2018-11-22T05:17:22.013Z,3.30
2018-11-22T05:19:50.441Z,3.30
2018-11-22T05:22:18.908Z,3.30
2018-11-22T05:24:47.298Z,3.30
2018-11-22T05:27:15.727Z,3.30
2018-11-22T05:29:44.144Z,3.30
2018-11-22T05:32:12.566Z,3.20
2018-11-22T05:34:41.007Z,3.10
2018-11-22T05:37:09.425Z,3.30
2018-11-22T05:39:37.827Z,3.30
2018-11-22T05:42:06.255Z,3.20
2018-11-22T05:44:34.687Z,3.20
2018-11-22T05:47:03.131Z,3.20
2018-11-22T05:49:31.538Z,3.10
2018-11-22T05:51:59.965Z,3.10
2018-11-22T05:54:28.384Z,3.20
2018-11-22T05:56:56.768Z,3.20
2018-11-22T05:59:25.208Z,3.20
2018-11-22T06:01:53.606Z,3.20
2018-11-22T06:04:22.055Z,3.20
2018-11-22T06:06:50.454Z,3.30
2018-11-22T06:09:18.859Z,3.30
2018-11-22T06:11:47.309Z,3.30
2018-11-22T06:14:15.695Z,3.30
2018-11-22T06:16:44.125Z,3.30
2018-11-22T06:19:12.507Z,3.30
2018-11-22T06:21:40.924Z,3.30
2018-11-22T06:24:09.331Z,3.40
2018-11-22T06:26:37.782Z,3.50
2018-11-22T06:29:06.321Z,3.60
2018-11-22T06:31:34.748Z,3.60
2018-11-22T06:34:03.233Z,3.50
2018-11-22T06:36:31.689Z,3.60
2018-11-22T06:39:00.085Z,3.60
2018-11-22T06:41:28.488Z,3.50
2018-11-22T06:43:56.972Z,3.50
2018-11-22T06:47:25.680Z,3.60
2018-11-22T06:49:58.417Z,3.60
2018-11-22T06:52:22.746Z,3.70
2018-11-22T06:54:51.176Z,3.70
2018-11-22T06:57:19.590Z,3.90
2018-11-22T06:59:48.063Z,4.10
2018-11-22T07:02:16.505Z,4.20
2018-11-22T07:04:46.329Z,4.30
2018-11-22T07:07:14.767Z,4.40
2018-11-22T07:09:43.154Z,4.50
2018-11-22T07:12:11.611Z,4.50
2018-11-22T07:14:40.434Z,4.60
2018-11-22T07:17:09.278Z,4.70
2018-11-22T07:19:38.235Z,4.50
2018-11-22T07:22:06.763Z,4.60
2018-11-22T07:24:35.214Z,4.70
2018-11-22T07:27:03.638Z,4.80
2018-11-22T07:29:32.144Z,4.80
2018-11-22T07:32:01.128Z,4.90
2018-11-22T07:34:33.556Z,4.90
2018-11-22T07:37:02.509Z,4.80
2018-11-22T07:39:30.984Z,4.80
2018-11-22T07:41:59.436Z,4.70
2018-11-22T07:44:28.130Z,4.60
2018-11-22T07:46:56.658Z,4.60
2018-11-22T07:49:25.067Z,4.60
2018-11-22T07:51:53.513Z,4.60
2018-11-22T07:54:22.002Z,4.40
2018-11-22T07:56:50.440Z,4.50
2018-11-22T07:59:18.851Z,4.50
2018-11-22T08:01:47.308Z,4.50
2018-11-22T08:04:15.780Z,4.50
2018-11-22T08:06:44.167Z,4.40
2018-11-22T08:09:12.640Z,4.30
2018-11-22T08:11:41.093Z,4.10
2018-11-22T08:14:09.534Z,4.20
2018-11-22T08:16:37.996Z,4.30
2018-11-22T08:19:06.439Z,4.30
2018-11-22T08:21:38.278Z,4.30
2018-11-22T08:24:03.303Z,4.30
2018-11-22T08:26:31.869Z,4.40
2018-11-22T08:29:00.357Z,4.50
2018-11-22T08:31:28.858Z,4.60
2018-11-22T08:33:57.525Z,4.70
2018-11-22T08:36:26.202Z,4.70
2018-11-22T08:38:57.678Z,4.60
2018-11-22T08:41:31.553Z,4.70
2018-11-22T08:44:00.399Z,4.70
2018-11-22T08:46:28.938Z,4.60
2018-11-22T08:48:57.354Z,4.60
2018-11-22T08:51:25.864Z,4.60
2018-11-22T08:53:54.296Z,4.40
2018-11-22T08:56:23.849Z,4.50
2018-11-22T08:58:52.752Z,4.40
2018-11-22T09:01:21.438Z,4.40
2018-11-22T09:03:50.217Z,4.40
